x

Buoy I01 - Eastern Maine Shelf (44034) Wave Buoy

7:04 - Sun 29th May 2016 All times are EDT. -4 hours from GMT.

  • Sig Wave height 2.6ft
  • Peak Period 5s
  • Wind
    11mph, 13mph gusts
  • Sea Temp 48°f
  • Ar Temp 48°f
  • Sea Pressure 1025.4mb
  • Buoy I01 - Eastern Maine Shelf
  • Buoy I01 - Eastern Maine Shelf

More Historic Weather Station data

Upgrade to MSW Pro to gain access to the past 30 days of data for over 8000 Wavebouys and Weather Stations around the globe.

Join Pro

Comparision Forecast

View Surf forecast
   
Dom 05/29 7:04 2.5ft 5s 11 13 mph 1025.4mb 48f 48f
6:04 2.5ft 6s 13 16 mph 1024.7mb 48f 48f
5:04 2.5ft 6s 11 13 mph 1024.4mb 48f 49f
4:04 2.5ft 4s 9 13 mph 1023.8mb 48f 49f
3:04 2.5ft 6s 11 16 mph 1024mb 48f 49f
2:04 2.5ft 6s 13 16 mph 1024mb 47f 49f
1:04 2.5ft 6s 13 18 mph 1023.5mb 48f 50f
12:04 2.5ft 5s 13 16 mph 1023.5mb 47f 50f
Sáb 05/28 11:04 2ft 6s 11 13 mph 1023mb 48f 51f
10:04 2ft 5s 13
mph
1022.5mb 48f 51f
9:04 2.5ft 5s 4 7 mph 1021.7mb 48f 53f
8:04 2.5ft 5s 4
mph
1021.1mb 48f 53f
7:04 2.5ft 5s 2 4 mph 1020mb 47f 54f
5:04 2ft 6s 2
mph
1019mb 47f 55f
4:04 2.5ft 5s 2
mph
1018.5mb 50f 56f
3:04 2.5ft 5s 2 4 mph 1018mb 49f 55f
2:04 2.5ft 5s 2
mph
1018.2mb 52f 55f
1:04 2.5ft 5s 4
mph
1018mb 47f 54f
12:04 2.5ft 5s 2 4 mph 1018.1mb 47f 53f
11:04 3.5ft 5s 4
mph
1017.9mb 47f 51f
10:04 2.5ft 5s 2 4 mph 1017.6mb 47f 51f
9:04 2.5ft 5s 2
mph
1017.6mb 47f 51f
8:04 2.5ft 5s 7
mph
1017.4mb 47f 49f
7:04 2.5ft 8s 4
mph
1017mb 47f 48f
6:04 2.5ft 5s 4 7 mph 1016.4mb 47f 48f
5:04 2.5ft 5s 9 11 mph 1015.4mb 47f 48f
4:04 2.5ft 5s 11
mph
1015.4mb 47f 48f
3:04 2.5ft 5s 7
mph
1015.7mb 47f 48f
2:04 2.5ft 5s 4
mph
1016.6mb 47f 48f
1:04 3ft 5s 7 9 mph 1017.1mb 47f 47f
12:04 3.5ft 5s 4
mph
1016.3mb 47f 48f
Sex 05/27 11:04 3.5ft 5s 4 7 mph 1016.8mb 47f 48f
10:04 3.5ft 5s 9
mph
1017mb 47f 48f
9:04 3.5ft 5s 7 9 mph 1017.5mb 47f 49f
8:04 3.5ft 5s 11 13 mph 1017.5mb 47f 49f
7:04 3.5ft 5s 13 16 mph 1017.8mb 47f 49f
6:04 3.5ft 5s 13 16 mph 1018.5mb 47f 49f
5:04 3.5ft 5s 11 13 mph 1019mb 47f 49f
4:04 3ft 4s 13 16 mph 1019.4mb 47f 49f
3:04 2.5ft 8s 16
mph
1020mb 47f 49f
2:04 2.5ft 6s 7 9 mph 1021.4mb 47f 49f
1:04 2.5ft 6s 9 13 mph 1021.8mb 47f 49f
12:04 2.5ft 5s 9 11 mph 1022.5mb 47f 48f
11:04 2.5ft 5s 9 11 mph 1023.2mb 47f 48f
10:04 3ft 5s 11 13 mph 1023.4mb 47f 47f
9:04 3ft 5s 13 16 mph 1023.3mb 47f 47f
8:04 3.5ft 8s 13 18 mph 1023.3mb 47f 47f
7:04 3.5ft 4s 18 22 mph 1023mb 47f 47f
6:04 3ft 4s 20 22 mph 1022.7mb 47f 47f
5:04 2.5ft 8s 18 22 mph 1023.3mb 48f 48f
4:04 2.5ft 8s 16 18 mph 1023.3mb 48f 49f
3:04 2.5ft 8s 13 16 mph 1022.5mb 48f 49f
2:04 2.5ft 8s 11 13 mph 1022.5mb 48f 49f
1:04 2.5ft 8s 7 9 mph 1022.8mb 48f 49f
12:04 2.5ft 8s 7 9 mph 1022.9mb 48f 50f
Qui 05/26 11:04 2.5ft 8s 11 13 mph 1022.6mb 47f 51f
10:04 2.5ft 8s 11
mph
1021.9mb 47f 52f
9:04 2ft 8s 9 11 mph 1021.1mb 49f 51f
8:04 2.5ft 8s 7
mph
1020.7mb 48f 51f
7:04 2.5ft 8s 2 4 mph 1020.1mb 48f 53f
6:04 2.5ft 8s 7
mph
1019.5mb 49f 53f
5:04 2.5ft 6s 9 11 mph 1019mb 52f 54f
4:04 2.5ft 8s 4 7 mph 1018.2mb 49f 53f
3:04 2.5ft 8s 4 7 mph 1018.2mb 49f 54f
2:04 3ft 8s 7 9 mph 1018.1mb 51f 56f
1:04 2.5ft 8s 7 9 mph 1018mb 50f 55f
12:04 3ft 8s 4 7 mph 1017.9mb 49f 55f
11:04 2.5ft 8s 2 4 mph 1018.1mb 48f 56f
10:04 2.5ft 8s  -  mph - 47f -
9:04 2.5ft 8s 7 9 mph 1017.6mb 47f 52f
8:04 3ft 8s 11 13 mph 1017.4mb 47f 52f
7:04 3.5ft 8s 9 11 mph 1016.8mb 47f 53f
6:04 3ft 8s 7 9 mph 1016.2mb 47f 52f
5:04 3ft 8s 13 16 mph 1015mb 47f 54f
4:04 3ft 8s 7 9 mph 1014.4mb 48f 51f
3:04 3.5ft 8s 7 11 mph 1013.9mb 48f 52f
2:04 3ft 8s 7
mph
1013.5mb 48f 51f
1:04 3ft 8s 9
mph
1013.6mb 48f 49f
12:04 3.5ft 8s 7
mph
1013.4mb 48f 49f
Qua 05/25 11:04 2.5ft 8s 9 11 mph 1013.7mb 48f 49f
10:04 3.5ft 8s 7 9 mph 1013.9mb 48f 49f
9:04 3.5ft 8s 7 9 mph 1013.9mb 48f 48f
8:04 3.5ft 8s 9
mph
1013.9mb 48f 48f
7:04 3.5ft 8s 9 11 mph 1014.4mb 48f 48f
6:04 3.5ft 8s 9 11 mph 1014.1mb 48f 48f
5:04 3ft 8s 11
mph
1014.1mb 48f 48f
4:04 3.5ft 8s 13 16 mph 1014.1mb 48f 48f
3:04 3.5ft 8s 9 11 mph 1014.1mb 48f 48f
2:04 4.5ft 8s 13
mph
1014.3mb 48f 49f